sensor_id;sensor_type;location;lat;lon;timestamp;P1;P2;P0
55754;PMS5003;41674;52.290;-1.474;2023-01-28T00:00:24;31;27;
55754;PMS5003;41674;52.290;-1.474;2023-01-28T00:02:54;26;24;
55754;PMS5003;41674;52.290;-1.474;2023-01-28T00:05:23;32;30;
55754;PMS5003;41674;52.290;-1.474;2023-01-28T00:07:52;32;32;
55754;PMS5003;41674;52.290;-1.474;2023-01-28T00:10:22;34;32;
55754;PMS5003;41674;52.290;-1.474;2023-01-28T00:12:51;31;29;
55754;PMS5003;41674;52.290;-1.474;2023-01-28T00:15:20;39;31;
55754;PMS5003;41674;52.290;-1.474;2023-01-28T00:17:50;44;32;
55754;PMS5003;41674;52.290;-1.474;2023-01-28T00:20:20;28;28;
55754;PMS5003;41674;52.290;-1.474;2023-01-28T00:22:49;33;32;
55754;PMS5003;41674;52.290;-1.474;2023-01-28T00:25:19;36;29;
55754;PMS5003;41674;52.290;-1.474;2023-01-28T00:27:48;33;29;
55754;PMS5003;41674;52.290;-1.474;2023-01-28T00:30:17;29;25;
55754;PMS5003;41674;52.290;-1.474;2023-01-28T00:32:47;36;31;
55754;PMS5003;41674;52.290;-1.474;2023-01-28T00:35:16;25;21;
55754;PMS5003;41674;52.290;-1.474;2023-01-28T00:37:46;24;21;
55754;PMS5003;41674;52.290;-1.474;2023-01-28T00:40:16;23;18;
55754;PMS5003;41674;52.290;-1.474;2023-01-28T00:42:45;25;22;
55754;PMS5003;41674;52.290;-1.474;2023-01-28T00:45:15;20;19;
55754;PMS5003;41674;52.290;-1.474;2023-01-28T00:47:44;21;20;
55754;PMS5003;41674;52.290;-1.474;2023-01-28T00:50:13;27;24;
55754;PMS5003;41674;52.290;-1.474;2023-01-28T00:52:42;22;19;
55754;PMS5003;41674;52.290;-1.474;2023-01-28T00:55:12;21;20;
55754;PMS5003;41674;52.290;-1.474;2023-01-28T00:57:41;20;19;
55754;PMS5003;41674;52.290;-1.474;2023-01-28T01:00:11;19;18;
55754;PMS5003;41674;52.290;-1.474;2023-01-28T01:02:40;26;23;
55754;PMS5003;41674;52.290;-1.474;2023-01-28T01:05:09;28;24;
55754;PMS5003;41674;52.290;-1.474;2023-01-28T01:07:39;29;27;
55754;PMS5003;41674;52.290;-1.474;2023-01-28T01:10:09;27;26;
55754;PMS5003;41674;52.290;-1.474;2023-01-28T01:12:38;47;39;
55754;PMS5003;41674;52.290;-1.474;2023-01-28T01:15:08;47;36;
55754;PMS5003;41674;52.290;-1.474;2023-01-28T01:17:37;30;27;
55754;PMS5003;41674;52.290;-1.474;2023-01-28T01:20:07;25;21;
55754;PMS5003;41674;52.290;-1.474;2023-01-28T01:22:36;31;27;
55754;PMS5003;41674;52.290;-1.474;2023-01-28T01:25:06;30;29;
55754;PMS5003;41674;52.290;-1.474;2023-01-28T01:27:35;23;22;
55754;PMS5003;41674;52.290;-1.474;2023-01-28T01:30:05;33;27;
55754;PMS5003;41674;52.290;-1.474;2023-01-28T01:32:34;27;24;
55754;PMS5003;41674;52.290;-1.474;2023-01-28T01:35:04;28;24;
55754;PMS5003;41674;52.290;-1.474;2023-01-28T01:37:33;29;26;
55754;PMS5003;41674;52.290;-1.474;2023-01-28T01:40:03;44;36;
55754;PMS5003;41674;52.290;-1.474;2023-01-28T01:42:32;25;23;
55754;PMS5003;41674;52.290;-1.474;2023-01-28T01:45:02;29;25;
55754;PMS5003;41674;52.290;-1.474;2023-01-28T01:47:34;27;23;
55754;PMS5003;41674;52.290;-1.474;2023-01-28T01:50:01;27;24;
55754;PMS5003;41674;52.290;-1.474;2023-01-28T01:52:30;21;20;
55754;PMS5003;41674;52.290;-1.474;2023-01-28T01:54:59;22;22;
55754;PMS5003;41674;52.290;-1.474;2023-01-28T01:57:28;24;22;
55754;PMS5003;41674;52.290;-1.474;2023-01-28T01:59:58;24;22;
55754;PMS5003;41674;52.290;-1.474;2023-01-28T02:02:27;31;26;
55754;PMS5003;41674;52.290;-1.474;2023-01-28T02:04:57;35;29;
55754;PMS5003;41674;52.290;-1.474;2023-01-28T02:07:26;34;30;
55754;PMS5003;41674;52.290;-1.474;2023-01-28T02:09:56;75;61;
55754;PMS5003;41674;52.290;-1.474;2023-01-28T02:12:26;36;36;
55754;PMS5003;41674;52.290;-1.474;2023-01-28T02:14:55;39;34;
55754;PMS5003;41674;52.290;-1.474;2023-01-28T02:17:23;50;45;
55754;PMS5003;41674;52.290;-1.474;2023-01-28T02:19:53;40;31;
55754;PMS5003;41674;52.290;-1.474;2023-01-28T02:24:54;48;40;
55754;PMS5003;41674;52.290;-1.474;2023-01-28T02:27:23;56;45;
55754;PMS5003;41674;52.290;-1.474;2023-01-28T02:29:51;48;43;
55754;PMS5003;41674;52.290;-1.474;2023-01-28T02:32:19;45;42;
55754;PMS5003;41674;52.290;-1.474;2023-01-28T02:34:50;50;40;
55754;PMS5003;41674;52.290;-1.474;2023-01-28T02:37:19;61;48;
55754;PMS5003;41674;52.290;-1.474;2023-01-28T02:39:48;52;42;
55754;PMS5003;41674;52.290;-1.474;2023-01-28T02:42:17;48;41;
55754;PMS5003;41674;52.290;-1.474;2023-01-28T02:44:46;66;51;
55754;PMS5003;41674;52.290;-1.474;2023-01-28T02:47:16;37;34;
55754;PMS5003;41674;52.290;-1.474;2023-01-28T02:49:46;34;30;
55754;PMS5003;41674;52.290;-1.474;2023-01-28T02:52:18;32;30;
55754;PMS5003;41674;52.290;-1.474;2023-01-28T02:54:46;42;36;
55754;PMS5003;41674;52.290;-1.474;2023-01-28T02:57:17;38;34;
55754;PMS5003;41674;52.290;-1.474;2023-01-28T02:59:44;38;34;
55754;PMS5003;41674;52.290;-1.474;2023-01-28T03:02:14;41;34;
55754;PMS5003;41674;52.290;-1.474;2023-01-28T03:04:43;38;35;
55754;PMS5003;41674;52.290;-1.474;2023-01-28T03:07:11;40;38;
55754;PMS5003;41674;52.290;-1.474;2023-01-28T03:09:40;38;35;
55754;PMS5003;41674;52.290;-1.474;2023-01-28T03:12:10;38;33;
55754;PMS5003;41674;52.290;-1.474;2023-01-28T03:14:41;31;25;
55754;PMS5003;41674;52.290;-1.474;2023-01-28T03:17:11;31;30;
55754;PMS5003;41674;52.290;-1.474;2023-01-28T03:19:38;36;34;
55754;PMS5003;41674;52.290;-1.474;2023-01-28T03:22:08;36;30;
55754;PMS5003;41674;52.290;-1.474;2023-01-28T03:24:40;29;26;
55754;PMS5003;41674;52.290;-1.474;2023-01-28T03:27:09;27;26;
55754;PMS5003;41674;52.290;-1.474;2023-01-28T03:29:37;30;28;
55754;PMS5003;41674;52.290;-1.474;2023-01-28T03:32:06;30;27;
55754;PMS5003;41674;52.290;-1.474;2023-01-28T03:34:36;26;24;
55754;PMS5003;41674;52.290;-1.474;2023-01-28T03:37:05;21;19;
55754;PMS5003;41674;52.290;-1.474;2023-01-28T03:39:34;25;24;
55754;PMS5003;41674;52.290;-1.474;2023-01-28T03:42:05;24;23;
55754;PMS5003;41674;52.290;-1.474;2023-01-28T03:44:33;25;22;
55754;PMS5003;41674;52.290;-1.474;2023-01-28T03:47:02;32;24;
55754;PMS5003;41674;52.290;-1.474;2023-01-28T03:49:32;27;26;
55754;PMS5003;41674;52.290;-1.474;2023-01-28T03:52:02;28;24;
55754;PMS5003;41674;52.290;-1.474;2023-01-28T03:54:32;25;20;
55754;PMS5003;41674;52.290;-1.474;2023-01-28T03:57:01;29;23;
55754;PMS5003;41674;52.290;-1.474;2023-01-28T03:59:31;26;23;
55754;PMS5003;41674;52.290;-1.474;2023-01-28T04:02:00;25;22;
55754;PMS5003;41674;52.290;-1.474;2023-01-28T04:04:30;20;20;
55754;PMS5003;41674;52.290;-1.474;2023-01-28T04:06:59;27;21;
55754;PMS5003;41674;52.290;-1.474;2023-01-28T04:09:29;29;27;
55754;PMS5003;41674;52.290;-1.474;2023-01-28T04:11:58;24;23;
55754;PMS5003;41674;52.290;-1.474;2023-01-28T04:14:27;25;21;
55754;PMS5003;41674;52.290;-1.474;2023-01-28T04:16:56;24;23;
55754;PMS5003;41674;52.290;-1.474;2023-01-28T04:19:26;25;24;
55754;PMS5003;41674;52.290;-1.474;2023-01-28T04:21:55;23;19;
55754;PMS5003;41674;52.290;-1.474;2023-01-28T04:24:24;31;26;
55754;PMS5003;41674;52.290;-1.474;2023-01-28T04:26:54;22;21;
55754;PMS5003;41674;52.290;-1.474;2023-01-28T04:29:24;24;23;
55754;PMS5003;41674;52.290;-1.474;2023-01-28T04:31:53;24;20;
55754;PMS5003;41674;52.290;-1.474;2023-01-28T04:34:22;30;28;
55754;PMS5003;41674;52.290;-1.474;2023-01-28T04:36:52;30;27;
55754;PMS5003;41674;52.290;-1.474;2023-01-28T04:39:21;30;27;
55754;PMS5003;41674;52.290;-1.474;2023-01-28T04:41:50;30;23;
55754;PMS5003;41674;52.290;-1.474;2023-01-28T04:44:20;27;25;
55754;PMS5003;41674;52.290;-1.474;2023-01-28T04:46:49;32;30;
55754;PMS5003;41674;52.290;-1.474;2023-01-28T04:49:18;34;26;
55754;PMS5003;41674;52.290;-1.474;2023-01-28T04:51:48;28;25;
55754;PMS5003;41674;52.290;-1.474;2023-01-28T04:54:17;26;25;
55754;PMS5003;41674;52.290;-1.474;2023-01-28T04:56:46;25;23;
55754;PMS5003;41674;52.290;-1.474;2023-01-28T04:59:16;25;25;
55754;PMS5003;41674;52.290;-1.474;2023-01-28T05:01:46;31;28;
55754;PMS5003;41674;52.290;-1.474;2023-01-28T05:04:15;30;25;
55754;PMS5003;41674;52.290;-1.474;2023-01-28T05:06:45;31;26;
55754;PMS5003;41674;52.290;-1.474;2023-01-28T05:09:15;28;25;
55754;PMS5003;41674;52.290;-1.474;2023-01-28T05:11:44;26;23;
55754;PMS5003;41674;52.290;-1.474;2023-01-28T05:14:13;30;26;
55754;PMS5003;41674;52.290;-1.474;2023-01-28T05:16:43;32;28;
55754;PMS5003;41674;52.290;-1.474;2023-01-28T05:19:13;30;27;
55754;PMS5003;41674;52.290;-1.474;2023-01-28T05:21:42;27;27;
55754;PMS5003;41674;52.290;-1.474;2023-01-28T05:24:11;25;24;
55754;PMS5003;41674;52.290;-1.474;2023-01-28T05:26:40;33;29;
55754;PMS5003;41674;52.290;-1.474;2023-01-28T05:29:09;25;21;
55754;PMS5003;41674;52.290;-1.474;2023-01-28T05:31:38;27;27;
55754;PMS5003;41674;52.290;-1.474;2023-01-28T05:34:08;24;22;
55754;PMS5003;41674;52.290;-1.474;2023-01-28T05:36:37;30;24;
55754;PMS5003;41674;52.290;-1.474;2023-01-28T05:39:07;27;24;
55754;PMS5003;41674;52.290;-1.474;2023-01-28T05:41:36;33;25;
55754;PMS5003;41674;52.290;-1.474;2023-01-28T05:44:05;29;25;
55754;PMS5003;41674;52.290;-1.474;2023-01-28T05:46:35;27;24;
55754;PMS5003;41674;52.290;-1.474;2023-01-28T05:49:05;32;29;
55754;PMS5003;41674;52.290;-1.474;2023-01-28T05:51:34;28;26;
55754;PMS5003;41674;52.290;-1.474;2023-01-28T05:54:04;32;30;
55754;PMS5003;41674;52.290;-1.474;2023-01-28T05:56:34;35;30;
55754;PMS5003;41674;52.290;-1.474;2023-01-28T05:59:03;32;29;
55754;PMS5003;41674;52.290;-1.474;2023-01-28T06:01:32;41;32;
55754;PMS5003;41674;52.290;-1.474;2023-01-28T06:04:02;32;25;
55754;PMS5003;41674;52.290;-1.474;2023-01-28T06:06:31;33;30;
55754;PMS5003;41674;52.290;-1.474;2023-01-28T06:09:00;38;31;
55754;PMS5003;41674;52.290;-1.474;2023-01-28T06:11:30;36;33;
55754;PMS5003;41674;52.290;-1.474;2023-01-28T06:13:59;27;25;
55754;PMS5003;41674;52.290;-1.474;2023-01-28T06:16:29;29;26;
55754;PMS5003;41674;52.290;-1.474;2023-01-28T06:18:58;30;25;
55754;PMS5003;41674;52.290;-1.474;2023-01-28T06:21:28;29;26;
55754;PMS5003;41674;52.290;-1.474;2023-01-28T06:23:58;31;27;
55754;PMS5003;41674;52.290;-1.474;2023-01-28T06:26:27;38;30;
55754;PMS5003;41674;52.290;-1.474;2023-01-28T06:28:56;31;28;
55754;PMS5003;41674;52.290;-1.474;2023-01-28T06:31:25;32;30;
55754;PMS5003;41674;52.290;-1.474;2023-01-28T06:33:55;36;34;
55754;PMS5003;41674;52.290;-1.474;2023-01-28T06:36:25;30;28;
55754;PMS5003;41674;52.290;-1.474;2023-01-28T06:38:54;26;24;
55754;PMS5003;41674;52.290;-1.474;2023-01-28T06:41:23;30;28;
55754;PMS5003;41674;52.290;-1.474;2023-01-28T06:43:53;36;28;
55754;PMS5003;41674;52.290;-1.474;2023-01-28T06:46:23;30;28;
55754;PMS5003;41674;52.290;-1.474;2023-01-28T06:48:52;24;21;
55754;PMS5003;41674;52.290;-1.474;2023-01-28T06:51:21;29;27;
55754;PMS5003;41674;52.290;-1.474;2023-01-28T06:53:51;31;30;
55754;PMS5003;41674;52.290;-1.474;2023-01-28T06:56:20;32;24;
55754;PMS5003;41674;52.290;-1.474;2023-01-28T06:58:49;24;23;
55754;PMS5003;41674;52.290;-1.474;2023-01-28T07:01:19;28;23;
55754;PMS5003;41674;52.290;-1.474;2023-01-28T07:03:48;34;28;
55754;PMS5003;41674;52.290;-1.474;2023-01-28T07:06:18;23;23;
55754;PMS5003;41674;52.290;-1.474;2023-01-28T07:08:47;28;23;
55754;PMS5003;41674;52.290;-1.474;2023-01-28T07:11:17;28;24;
55754;PMS5003;41674;52.290;-1.474;2023-01-28T07:13:46;29;26;
55754;PMS5003;41674;52.290;-1.474;2023-01-28T07:16:16;28;25;
55754;PMS5003;41674;52.290;-1.474;2023-01-28T07:18:44;26;24;
55754;PMS5003;41674;52.290;-1.474;2023-01-28T07:21:14;30;26;
55754;PMS5003;41674;52.290;-1.474;2023-01-28T07:23:43;28;25;
55754;PMS5003;41674;52.290;-1.474;2023-01-28T07:26:12;25;23;
55754;PMS5003;41674;52.290;-1.474;2023-01-28T07:28:42;27;23;
55754;PMS5003;41674;52.290;-1.474;2023-01-28T07:31:11;19;19;
55754;PMS5003;41674;52.290;-1.474;2023-01-28T07:33:41;25;20;
55754;PMS5003;41674;52.290;-1.474;2023-01-28T07:36:11;26;24;
55754;PMS5003;41674;52.290;-1.474;2023-01-28T07:38:40;26;25;
55754;PMS5003;41674;52.290;-1.474;2023-01-28T07:41:09;26;24;
55754;PMS5003;41674;52.290;-1.474;2023-01-28T07:43:39;23;22;
55754;PMS5003;41674;52.290;-1.474;2023-01-28T07:46:08;25;24;
55754;PMS5003;41674;52.290;-1.474;2023-01-28T07:48:38;25;22;
55754;PMS5003;41674;52.290;-1.474;2023-01-28T07:51:08;27;24;
55754;PMS5003;41674;52.290;-1.474;2023-01-28T07:53:38;23;21;
55754;PMS5003;41674;52.290;-1.474;2023-01-28T07:56:07;26;22;
55754;PMS5003;41674;52.290;-1.474;2023-01-28T07:58:36;24;22;
55754;PMS5003;41674;52.290;-1.474;2023-01-28T08:01:05;33;24;
55754;PMS5003;41674;52.290;-1.474;2023-01-28T08:03:35;31;27;
55754;PMS5003;41674;52.290;-1.474;2023-01-28T08:06:05;24;21;
55754;PMS5003;41674;52.290;-1.474;2023-01-28T08:08:35;25;21;
55754;PMS5003;41674;52.290;-1.474;2023-01-28T08:11:06;27;22;
55754;PMS5003;41674;52.290;-1.474;2023-01-28T08:13:33;27;24;
55754;PMS5003;41674;52.290;-1.474;2023-01-28T08:16:03;26;22;
55754;PMS5003;41674;52.290;-1.474;2023-01-28T08:18:32;27;25;
55754;PMS5003;41674;52.290;-1.474;2023-01-28T08:21:02;24;21;
55754;PMS5003;41674;52.290;-1.474;2023-01-28T08:23:31;31;22;
55754;PMS5003;41674;52.290;-1.474;2023-01-28T08:26:01;24;22;
55754;PMS5003;41674;52.290;-1.474;2023-01-28T08:28:31;29;25;
55754;PMS5003;41674;52.290;-1.474;2023-01-28T08:31:00;29;24;
55754;PMS5003;41674;52.290;-1.474;2023-01-28T08:33:29;34;27;
55754;PMS5003;41674;52.290;-1.474;2023-01-28T08:36:01;32;23;
55754;PMS5003;41674;52.290;-1.474;2023-01-28T08:38:27;22;21;
55754;PMS5003;41674;52.290;-1.474;2023-01-28T08:40:57;33;28;
55754;PMS5003;41674;52.290;-1.474;2023-01-28T08:43:27;27;25;
55754;PMS5003;41674;52.290;-1.474;2023-01-28T08:45:56;24;21;
55754;PMS5003;41674;52.290;-1.474;2023-01-28T08:48:25;26;23;
55754;PMS5003;41674;52.290;-1.474;2023-01-28T08:50:55;27;25;
55754;PMS5003;41674;52.290;-1.474;2023-01-28T08:53:24;32;26;
55754;PMS5003;41674;52.290;-1.474;2023-01-28T08:55:53;25;19;
55754;PMS5003;41674;52.290;-1.474;2023-01-28T08:58:23;29;23;
55754;PMS5003;41674;52.290;-1.474;2023-01-28T09:00:52;29;26;
55754;PMS5003;41674;52.290;-1.474;2023-01-28T09:03:21;30;26;
55754;PMS5003;41674;52.290;-1.474;2023-01-28T09:05:50;27;21;
55754;PMS5003;41674;52.290;-1.474;2023-01-28T09:08:20;25;22;
55754;PMS5003;41674;52.290;-1.474;2023-01-28T09:10:53;26;24;
55754;PMS5003;41674;52.290;-1.474;2023-01-28T09:13:19;27;24;
55754;PMS5003;41674;52.290;-1.474;2023-01-28T09:15:49;25;22;
55754;PMS5003;41674;52.290;-1.474;2023-01-28T09:18:18;20;19;
55754;PMS5003;41674;52.290;-1.474;2023-01-28T09:20:48;28;25;
55754;PMS5003;41674;52.290;-1.474;2023-01-28T09:23:17;24;22;
55754;PMS5003;41674;52.290;-1.474;2023-01-28T09:25:47;27;23;
55754;PMS5003;41674;52.290;-1.474;2023-01-28T09:28:16;24;24;
55754;PMS5003;41674;52.290;-1.474;2023-01-28T09:30:45;27;24;
55754;PMS5003;41674;52.290;-1.474;2023-01-28T09:33:15;25;20;
55754;PMS5003;41674;52.290;-1.474;2023-01-28T09:35:44;28;25;
55754;PMS5003;41674;52.290;-1.474;2023-01-28T09:38:14;28;24;
55754;PMS5003;41674;52.290;-1.474;2023-01-28T09:40:43;30;25;
55754;PMS5003;41674;52.290;-1.474;2023-01-28T09:43:18;30;25;
55754;PMS5003;41674;52.290;-1.474;2023-01-28T09:45:43;23;22;
55754;PMS5003;41674;52.290;-1.474;2023-01-28T09:48:13;29;23;
55754;PMS5003;41674;52.290;-1.474;2023-01-28T09:50:42;30;25;
55754;PMS5003;41674;52.290;-1.474;2023-01-28T09:53:11;35;27;
55754;PMS5003;41674;52.290;-1.474;2023-01-28T09:55:41;23;22;
55754;PMS5003;41674;52.290;-1.474;2023-01-28T09:58:10;26;23;
55754;PMS5003;41674;52.290;-1.474;2023-01-28T10:00:40;31;25;
55754;PMS5003;41674;52.290;-1.474;2023-01-28T10:05:39;28;26;
55754;PMS5003;41674;52.290;-1.474;2023-01-28T10:08:12;28;25;
55754;PMS5003;41674;52.290;-1.474;2023-01-28T10:10:37;24;22;
55754;PMS5003;41674;52.290;-1.474;2023-01-28T10:13:11;29;24;
55754;PMS5003;41674;52.290;-1.474;2023-01-28T10:18:06;31;29;
55754;PMS5003;41674;52.290;-1.474;2023-01-28T10:20:36;22;20;
55754;PMS5003;41674;52.290;-1.474;2023-01-28T10:23:07;25;25;
55754;PMS5003;41674;52.290;-1.474;2023-01-28T10:25:34;28;23;
55754;PMS5003;41674;52.290;-1.474;2023-01-28T10:28:04;32;26;
55754;PMS5003;41674;52.290;-1.474;2023-01-28T10:30:33;26;24;
55754;PMS5003;41674;52.290;-1.474;2023-01-28T10:33:03;29;25;
55754;PMS5003;41674;52.290;-1.474;2023-01-28T10:35:35;25;22;
55754;PMS5003;41674;52.290;-1.474;2023-01-28T10:38:03;33;27;
55754;PMS5003;41674;52.290;-1.474;2023-01-28T10:40:31;23;21;
55754;PMS5003;41674;52.290;-1.474;2023-01-28T10:43:00;30;27;
55754;PMS5003;41674;52.290;-1.474;2023-01-28T10:45:30;29;25;
55754;PMS5003;41674;52.290;-1.474;2023-01-28T10:47:59;27;25;
55754;PMS5003;41674;52.290;-1.474;2023-01-28T10:50:29;26;22;
55754;PMS5003;41674;52.290;-1.474;2023-01-28T10:52:58;20;17;
55754;PMS5003;41674;52.290;-1.474;2023-01-28T10:55:27;20;19;
55754;PMS5003;41674;52.290;-1.474;2023-01-28T10:57:56;23;21;
55754;PMS5003;41674;52.290;-1.474;2023-01-28T11:00:26;27;23;
55754;PMS5003;41674;52.290;-1.474;2023-01-28T11:02:55;27;23;
55754;PMS5003;41674;52.290;-1.474;2023-01-28T11:05:24;19;16;
55754;PMS5003;41674;52.290;-1.474;2023-01-28T11:08:02;24;21;
55754;PMS5003;41674;52.290;-1.474;2023-01-28T11:10:24;22;20;
55754;PMS5003;41674;52.290;-1.474;2023-01-28T11:12:54;22;19;
55754;PMS5003;41674;52.290;-1.474;2023-01-28T11:15:22;20;18;
55754;PMS5003;41674;52.290;-1.474;2023-01-28T11:17:53;21;19;
55754;PMS5003;41674;52.290;-1.474;2023-01-28T11:20:22;27;19;
55754;PMS5003;41674;52.290;-1.474;2023-01-28T11:22:50;23;18;
55754;PMS5003;41674;52.290;-1.474;2023-01-28T11:25:25;24;20;
55754;PMS5003;41674;52.290;-1.474;2023-01-28T11:27:50;19;18;
55754;PMS5003;41674;52.290;-1.474;2023-01-28T11:30:22;15;15;
55754;PMS5003;41674;52.290;-1.474;2023-01-28T11:32:54;20;19;
55754;PMS5003;41674;52.290;-1.474;2023-01-28T11:35:23;19;17;
55754;PMS5003;41674;52.290;-1.474;2023-01-28T11:37:48;21;20;
55754;PMS5003;41674;52.290;-1.474;2023-01-28T11:40:18;22;20;
55754;PMS5003;41674;52.290;-1.474;2023-01-28T11:42:47;20;18;
55754;PMS5003;41674;52.290;-1.474;2023-01-28T11:45:17;27;22;
55754;PMS5003;41674;52.290;-1.474;2023-01-28T11:47:50;26;24;
55754;PMS5003;41674;52.290;-1.474;2023-01-28T11:50:19;20;17;
55754;PMS5003;41674;52.290;-1.474;2023-01-28T11:52:48;18;18;
55754;PMS5003;41674;52.290;-1.474;2023-01-28T11:55:18;18;17;
55754;PMS5003;41674;52.290;-1.474;2023-01-28T11:57:45;22;18;
55754;PMS5003;41674;52.290;-1.474;2023-01-28T12:00:23;22;21;
55754;PMS5003;41674;52.290;-1.474;2023-01-28T12:02:46;24;20;
55754;PMS5003;41674;52.290;-1.474;2023-01-28T12:05:16;25;21;
55754;PMS5003;41674;52.290;-1.474;2023-01-28T12:07:42;24;19;
55754;PMS5003;41674;52.290;-1.474;2023-01-28T12:10:13;28;20;
55754;PMS5003;41674;52.290;-1.474;2023-01-28T12:12:47;21;20;
55754;PMS5003;41674;52.290;-1.474;2023-01-28T12:17:42;22;20;
55754;PMS5003;41674;52.290;-1.474;2023-01-28T12:20:11;19;18;
55754;PMS5003;41674;52.290;-1.474;2023-01-28T12:22:46;20;17;
55754;PMS5003;41674;52.290;-1.474;2023-01-28T12:25:14;21;17;
55754;PMS5003;41674;52.290;-1.474;2023-01-28T12:27:39;19;18;
55754;PMS5003;41674;52.290;-1.474;2023-01-28T12:30:10;20;18;
55754;PMS5003;41674;52.290;-1.474;2023-01-28T12:32:40;23;23;
55754;PMS5003;41674;52.290;-1.474;2023-01-28T12:35:14;22;18;
55754;PMS5003;41674;52.290;-1.474;2023-01-28T12:37:39;25;23;
55754;PMS5003;41674;52.290;-1.474;2023-01-28T12:40:09;17;16;
55754;PMS5003;41674;52.290;-1.474;2023-01-28T12:42:34;21;20;
55754;PMS5003;41674;52.290;-1.474;2023-01-28T12:45:10;17;17;
55754;PMS5003;41674;52.290;-1.474;2023-01-28T12:47:33;20;19;
55754;PMS5003;41674;52.290;-1.474;2023-01-28T12:50:03;20;19;
55754;PMS5003;41674;52.290;-1.474;2023-01-28T12:52:32;24;22;
55754;PMS5003;41674;52.290;-1.474;2023-01-28T12:55:02;26;19;
55754;PMS5003;41674;52.290;-1.474;2023-01-28T12:57:31;18;18;
55754;PMS5003;41674;52.290;-1.474;2023-01-28T13:00:02;19;18;
55754;PMS5003;41674;52.290;-1.474;2023-01-28T13:02:30;22;21;
55754;PMS5003;41674;52.290;-1.474;2023-01-28T13:05:01;22;20;
55754;PMS5003;41674;52.290;-1.474;2023-01-28T13:07:31;25;21;
55754;PMS5003;41674;52.290;-1.474;2023-01-28T13:09:59;19;16;
55754;PMS5003;41674;52.290;-1.474;2023-01-28T13:12:29;19;18;
55754;PMS5003;41674;52.290;-1.474;2023-01-28T13:14:57;19;16;
55754;PMS5003;41674;52.290;-1.474;2023-01-28T13:17:27;21;18;
55754;PMS5003;41674;52.290;-1.474;2023-01-28T13:19:56;19;18;
55754;PMS5003;41674;52.290;-1.474;2023-01-28T13:22:27;19;16;
55754;PMS5003;41674;52.290;-1.474;2023-01-28T13:24:55;19;17;
55754;PMS5003;41674;52.290;-1.474;2023-01-28T13:27:25;21;19;
55754;PMS5003;41674;52.290;-1.474;2023-01-28T13:30:01;22;19;
55754;PMS5003;41674;52.290;-1.474;2023-01-28T13:32:26;21;18;
55754;PMS5003;41674;52.290;-1.474;2023-01-28T13:34:56;19;16;
55754;PMS5003;41674;52.290;-1.474;2023-01-28T13:37:23;17;16;
55754;PMS5003;41674;52.290;-1.474;2023-01-28T13:39:53;21;20;
55754;PMS5003;41674;52.290;-1.474;2023-01-28T13:42:22;16;15;
55754;PMS5003;41674;52.290;-1.474;2023-01-28T13:44:51;15;15;
55754;PMS5003;41674;52.290;-1.474;2023-01-28T13:47:22;23;20;
55754;PMS5003;41674;52.290;-1.474;2023-01-28T13:49:53;17;17;
55754;PMS5003;41674;52.290;-1.474;2023-01-28T13:52:22;17;15;
55754;PMS5003;41674;52.290;-1.474;2023-01-28T13:54:50;18;16;
55754;PMS5003;41674;52.290;-1.474;2023-01-28T13:57:26;18;16;
55754;PMS5003;41674;52.290;-1.474;2023-01-28T13:59:48;23;20;
55754;PMS5003;41674;52.290;-1.474;2023-01-28T14:02:24;20;20;
55754;PMS5003;41674;52.290;-1.474;2023-01-28T14:07:26;18;15;
55754;PMS5003;41674;52.290;-1.474;2023-01-28T14:09:52;21;20;
55754;PMS5003;41674;52.290;-1.474;2023-01-28T14:12:19;19;17;
55754;PMS5003;41674;52.290;-1.474;2023-01-28T14:17:15;21;19;
55754;PMS5003;41674;52.290;-1.474;2023-01-28T14:19:42;19;17;
55754;PMS5003;41674;52.290;-1.474;2023-01-28T14:22:13;23;20;
55754;PMS5003;41674;52.290;-1.474;2023-01-28T14:24:41;19;16;
55754;PMS5003;41674;52.290;-1.474;2023-01-28T14:27:12;21;20;
55754;PMS5003;41674;52.290;-1.474;2023-01-28T14:29:43;19;15;
55754;PMS5003;41674;52.290;-1.474;2023-01-28T14:32:11;16;15;
55754;PMS5003;41674;52.290;-1.474;2023-01-28T14:34:38;18;16;
55754;PMS5003;41674;52.290;-1.474;2023-01-28T14:37:08;18;14;
55754;PMS5003;41674;52.290;-1.474;2023-01-28T14:39:39;18;17;
55754;PMS5003;41674;52.290;-1.474;2023-01-28T14:42:11;19;16;
55754;PMS5003;41674;52.290;-1.474;2023-01-28T14:44:35;17;16;
55754;PMS5003;41674;52.290;-1.474;2023-01-28T14:47:10;19;18;
55754;PMS5003;41674;52.290;-1.474;2023-01-28T14:49:34;21;17;
55754;PMS5003;41674;52.290;-1.474;2023-01-28T14:52:08;15;15;
55754;PMS5003;41674;52.290;-1.474;2023-01-28T14:54:36;20;15;
55754;PMS5003;41674;52.290;-1.474;2023-01-28T14:57:06;14;13;
55754;PMS5003;41674;52.290;-1.474;2023-01-28T14:59:33;12;12;
55754;PMS5003;41674;52.290;-1.474;2023-01-28T15:04:32;12;11;
55754;PMS5003;41674;52.290;-1.474;2023-01-28T15:07:13;14;10;
55754;PMS5003;41674;52.290;-1.474;2023-01-28T15:09:30;11;11;
55754;PMS5003;41674;52.290;-1.474;2023-01-28T15:12:00;12;12;
55754;PMS5003;41674;52.290;-1.474;2023-01-28T15:14:30;9;9;
55754;PMS5003;41674;52.290;-1.474;2023-01-28T15:16:59;14;11;
55754;PMS5003;41674;52.290;-1.474;2023-01-28T15:19:30;11;10;
55754;PMS5003;41674;52.290;-1.474;2023-01-28T15:22:00;11;9;
55754;PMS5003;41674;52.290;-1.474;2023-01-28T15:24:28;12;11;
55754;PMS5003;41674;52.290;-1.474;2023-01-28T15:26:57;14;12;
55754;PMS5003;41674;52.290;-1.474;2023-01-28T15:29:30;15;12;
55754;PMS5003;41674;52.290;-1.474;2023-01-28T15:31:56;10;9;
55754;PMS5003;41674;52.290;-1.474;2023-01-28T15:34:26;14;10;
55754;PMS5003;41674;52.290;-1.474;2023-01-28T15:36:55;8;8;
55754;PMS5003;41674;52.290;-1.474;2023-01-28T15:39:26;12;11;
55754;PMS5003;41674;52.290;-1.474;2023-01-28T15:41:56;10;9;
55754;PMS5003;41674;52.290;-1.474;2023-01-28T15:46:54;14;10;
55754;PMS5003;41674;52.290;-1.474;2023-01-28T15:49:24;16;14;
55754;PMS5003;41674;52.290;-1.474;2023-01-28T15:51:53;12;11;
55754;PMS5003;41674;52.290;-1.474;2023-01-28T15:54:23;10;8;
55754;PMS5003;41674;52.290;-1.474;2023-01-28T15:56:52;10;10;
55754;PMS5003;41674;52.290;-1.474;2023-01-28T15:59:24;15;12;
55754;PMS5003;41674;52.290;-1.474;2023-01-28T16:04:22;17;17;
55754;PMS5003;41674;52.290;-1.474;2023-01-28T16:06:51;21;20;
55754;PMS5003;41674;52.290;-1.474;2023-01-28T16:09:22;25;22;
55754;PMS5003;41674;52.290;-1.474;2023-01-28T16:11:50;24;20;
55754;PMS5003;41674;52.290;-1.474;2023-01-28T16:14:20;27;24;
55754;PMS5003;41674;52.290;-1.474;2023-01-28T16:16:49;21;20;
55754;PMS5003;41674;52.290;-1.474;2023-01-28T16:21:47;30;26;
55754;PMS5003;41674;52.290;-1.474;2023-01-28T16:24:21;33;24;
55754;PMS5003;41674;52.290;-1.474;2023-01-28T16:29:16;43;39;
55754;PMS5003;41674;52.290;-1.474;2023-01-28T16:31:45;38;32;
55754;PMS5003;41674;52.290;-1.474;2023-01-28T16:34:14;31;30;
55754;PMS5003;41674;52.290;-1.474;2023-01-28T16:36:43;32;27;
55754;PMS5003;41674;52.290;-1.474;2023-01-28T16:39:13;29;25;
55754;PMS5003;41674;52.290;-1.474;2023-01-28T16:41:43;30;27;